Time;durP1;ratioP1;P1;durP2;ratioP2;P2;SDS_P1;SDS_P2;PMS_P1;PMS_P2;Temp;Humidity;BMP_temperature;BMP_pressure;BME280_temperature;BME280_humidity;BME280_pressure;Samples;Min_cycle;Max_cycle;Signal;HPM_P1;HPM_P2
2023/12/30 00:00:23;;;;;;;3.55;1.20;;;;;10.00;98288.00;;;;5035203;28;20521;-62
2023/12/30 00:02:51;;;;;;;3.53;1.70;;;;;10.00;98291.00;;;;5035172;28;20116;-62
2023/12/30 00:05:17;;;;;;;6.82;1.50;;;;;10.00;98297.00;;;;5034498;28;20395;-62
2023/12/30 00:07:44;;;;;;;7.80;1.58;;;;;10.10;98295.00;;;;5035105;28;20084;-63
2023/12/30 00:10:11;;;;;;;4.30;1.45;;;;;10.10;98304.00;;;;5034868;28;20116;-63
2023/12/30 00:12:38;;;;;;;4.85;1.55;;;;;10.10;98310.00;;;;5035027;28;20453;-65
2023/12/30 00:15:06;;;;;;;2.30;1.40;;;;;10.10;98319.00;;;;5034540;28;20091;-62
2023/12/30 00:17:32;;;;;;;5.30;1.65;;;;;10.10;98318.00;;;;5033765;28;20084;-62
2023/12/30 00:19:59;;;;;;;5.97;1.15;;;;;10.10;98312.00;;;;5034939;28;20461;-64
2023/12/30 00:22:26;;;;;;;4.88;1.27;;;;;10.10;98329.00;;;;5035023;28;20045;-64
2023/12/30 00:24:52;;;;;;;7.18;1.77;;;;;10.10;98310.00;;;;5034176;28;20049;-61
2023/12/30 00:27:19;;;;;;;3.65;1.20;;;;;10.10;98315.00;;;;5033443;28;20128;-64
2023/12/30 00:29:46;;;;;;;7.00;1.77;;;;;10.20;98312.00;;;;5035050;28;20065;-63
2023/12/30 00:32:12;;;;;;;1.92;1.20;;;;;10.10;98314.00;;;;5034694;28;20053;-62
2023/12/30 00:34:39;;;;;;;2.63;1.42;;;;;10.20;98319.00;;;;5034027;28;20411;-62
2023/12/30 00:37:05;;;;;;;3.95;0.90;;;;;10.20;98316.00;;;;5036610;28;20049;-64
2023/12/30 00:39:32;;;;;;;3.47;1.10;;;;;10.20;98312.00;;;;5037097;28;20072;-65
2023/12/30 00:41:59;;;;;;;2.22;0.95;;;;;10.30;98313.00;;;;5036449;28;20081;-62
2023/12/30 00:44:25;;;;;;;2.40;1.05;;;;;10.30;98326.00;;;;5035457;28;20042;-65
2023/12/30 00:46:52;;;;;;;5.13;1.80;;;;;10.30;98318.00;;;;5033767;28;20057;-64
2023/12/30 00:49:18;;;;;;;3.97;1.58;;;;;10.40;98320.00;;;;5035591;28;20384;-62
2023/12/30 00:51:45;;;;;;;3.42;1.40;;;;;10.40;98331.00;;;;5035895;28;20056;-61
2023/12/30 00:54:12;;;;;;;5.35;2.20;;;;;10.30;98324.00;;;;5035124;28;20049;-64
2023/12/30 00:56:38;;;;;;;2.88;1.50;;;;;10.30;98321.00;;;;5034552;28;20053;-62
2023/12/30 00:59:05;;;;;;;3.53;1.50;;;;;10.30;98329.00;;;;5035940;28;20445;-62
2023/12/30 01:01:33;;;;;;;3.40;1.58;;;;;10.30;98330.00;;;;5034504;28;20055;-62
2023/12/30 01:03:59;;;;;;;4.85;1.65;;;;;10.30;98337.00;;;;5034984;28;20119;-62
2023/12/30 01:06:26;;;;;;;2.45;1.50;;;;;10.30;98339.00;;;;5035392;28;20038;-64
2023/12/30 01:08:53;;;;;;;3.92;1.80;;;;;10.30;98335.00;;;;5035395;28;20049;-62
2023/12/30 01:11:19;;;;;;;2.88;1.48;;;;;10.30;98340.00;;;;5034690;28;20049;-62
2023/12/30 01:13:46;;;;;;;1.92;1.20;;;;;10.20;98337.00;;;;5032200;28;20114;-61
2023/12/30 01:16:13;;;;;;;3.83;1.75;;;;;10.20;98336.00;;;;5033871;28;20435;-63
2023/12/30 01:18:40;;;;;;;5.95;1.50;;;;;10.20;98340.00;;;;5032637;28;20042;-61
2023/12/30 01:21:07;;;;;;;1.95;1.30;;;;;10.10;98333.00;;;;5033440;28;20045;-63
2023/12/30 01:23:34;;;;;;;2.78;1.40;;;;;10.10;98331.00;;;;5033177;28;20079;-63
2023/12/30 01:26:01;;;;;;;5.38;1.42;;;;;10.10;98345.00;;;;5033583;28;20052;-62
2023/12/30 01:28:27;;;;;;;2.70;1.70;;;;;10.10;98343.00;;;;5033450;28;20042;-63
2023/12/30 01:30:54;;;;;;;7.13;1.73;;;;;10.10;98338.00;;;;5033636;28;20133;-62
2023/12/30 01:33:21;;;;;;;4.20;1.77;;;;;10.10;98337.00;;;;5033255;28;20418;-65
2023/12/30 01:35:47;;;;;;;3.55;1.92;;;;;10.10;98337.00;;;;5033027;28;20049;-62
2023/12/30 01:38:14;;;;;;;2.78;1.60;;;;;10.10;98346.00;;;;5033455;28;20120;-65
2023/12/30 01:40:41;;;;;;;2.55;1.40;;;;;10.10;98339.00;;;;5032292;28;20045;-64
2023/12/30 01:43:25;;;;;;;4.80;1.30;;;;;10.10;98351.00;;;;5033321;28;20376;-64
2023/12/30 01:45:53;;;;;;;4.28;1.58;;;;;10.10;98350.00;;;;5033178;28;20037;-63
2023/12/30 01:48:23;;;;;;;4.60;1.65;;;;;10.10;98345.00;;;;5033186;28;20049;-64
2023/12/30 01:50:52;;;;;;;6.07;2.13;;;;;10.10;98348.00;;;;5033348;28;20387;-64
2023/12/30 01:53:19;;;;;;;7.60;2.08;;;;;10.10;98341.00;;;;5032057;28;20057;-64
2023/12/30 01:55:50;;;;;;;4.30;2.20;;;;;10.00;98339.00;;;;5032525;28;20449;-64
2023/12/30 01:58:18;;;;;;;4.75;1.77;;;;;10.00;98355.00;;;;5031241;28;20052;-65
2023/12/30 02:00:48;;;;;;;4.35;1.73;;;;;10.00;98370.00;;;;5031555;28;20041;-62
2023/12/30 02:03:15;;;;;;;2.85;1.50;;;;;10.00;98372.00;;;;5032751;28;20064;-62
2023/12/30 02:05:42;;;;;;;5.13;1.70;;;;;10.10;98371.00;;;;5032173;28;20052;-64
2023/12/30 02:08:09;;;;;;;3.30;1.38;;;;;10.20;98374.00;;;;5031522;28;20041;-64
2023/12/30 02:10:36;;;;;;;3.03;1.38;;;;;10.20;98371.00;;;;5032839;28;20045;-63
2023/12/30 02:13:06;;;;;;;2.35;1.48;;;;;10.20;98384.00;;;;5032550;28;20460;-63
2023/12/30 02:15:33;;;;;;;5.70;1.33;;;;;10.20;98386.00;;;;5031161;28;20046;-62
2023/12/30 02:18:00;;;;;;;5.35;2.15;;;;;10.20;98377.00;;;;5031881;28;20077;-61
2023/12/30 02:20:28;;;;;;;6.60;1.95;;;;;10.10;98372.00;;;;5033200;28;20046;-62
2023/12/30 02:22:54;;;;;;;5.40;1.23;;;;;10.10;98377.00;;;;5031310;28;20148;-60
2023/12/30 02:25:21;;;;;;;3.80;1.50;;;;;10.10;98369.00;;;;5031721;28;20041;-62
2023/12/30 02:27:48;;;;;;;4.72;1.67;;;;;10.10;98365.00;;;;5031125;28;20049;-62
2023/12/30 02:30:15;;;;;;;7.05;1.60;;;;;10.10;98367.00;;;;5032721;28;20049;-61
2023/12/30 02:32:41;;;;;;;3.90;1.30;;;;;10.10;98369.00;;;;5032825;28;20042;-62
2023/12/30 02:35:08;;;;;;;7.93;1.40;;;;;10.10;98369.00;;;;5030679;28;20045;-62
2023/12/30 02:37:35;;;;;;;5.03;1.65;;;;;10.10;98374.00;;;;5032204;28;20045;-64
2023/12/30 02:40:02;;;;;;;4.40;1.55;;;;;10.20;98375.00;;;;5031069;28;20111;-62
2023/12/30 02:42:29;;;;;;;6.05;1.70;;;;;10.20;98383.00;;;;5031148;28;20469;-62
2023/12/30 02:44:57;;;;;;;6.32;1.75;;;;;10.20;98378.00;;;;5031682;28;20038;-61
2023/12/30 02:47:23;;;;;;;4.65;1.58;;;;;10.10;98380.00;;;;5031347;28;20103;-62
2023/12/30 02:49:50;;;;;;;3.88;1.73;;;;;10.10;98375.00;;;;5031054;28;20045;-62
2023/12/30 02:52:17;;;;;;;5.85;2.00;;;;;10.10;98371.00;;;;5031217;28;20104;-61
2023/12/30 02:54:43;;;;;;;4.93;1.80;;;;;10.10;98383.00;;;;5030309;28;20049;-62
2023/12/30 02:57:10;;;;;;;3.00;1.60;;;;;10.20;98388.00;;;;5032338;28;20045;-63
2023/12/30 02:59:37;;;;;;;5.45;2.03;;;;;10.20;98389.00;;;;5032333;28;20073;-63
2023/12/30 03:02:03;;;;;;;6.93;1.90;;;;;10.10;98390.00;;;;5031855;28;20072;-62
2023/12/30 03:04:30;;;;;;;5.50;2.05;;;;;10.20;98387.00;;;;5030155;28;20077;-64
2023/12/30 03:06:57;;;;;;;7.57;2.10;;;;;10.20;98385.00;;;;5031988;28;20049;-62
2023/12/30 03:09:23;;;;;;;3.92;1.42;;;;;10.10;98396.00;;;;5030472;28;20073;-59
2023/12/30 03:11:50;;;;;;;4.22;1.50;;;;;10.20;98379.00;;;;5034501;28;20156;-63
2023/12/30 03:14:17;;;;;;;7.13;2.10;;;;;10.20;98390.00;;;;5035442;28;20045;-62
2023/12/30 03:16:43;;;;;;;8.27;1.90;;;;;10.20;98384.00;;;;5034605;28;20064;-63
2023/12/30 03:19:11;;;;;;;9.20;2.20;;;;;10.20;98369.00;;;;5035711;28;20461;-62
2023/12/30 03:21:38;;;;;;;6.15;1.85;;;;;10.20;98366.00;;;;5035823;28;20120;-63
2023/12/30 03:24:04;;;;;;;8.40;1.80;;;;;10.20;98377.00;;;;5033777;28;20103;-62
2023/12/30 03:26:31;;;;;;;10.88;2.92;;;;;10.30;98377.00;;;;5035629;28;20049;-62
2023/12/30 03:28:58;;;;;;;5.93;1.90;;;;;10.20;98380.00;;;;5035638;28;20045;-62
2023/12/30 03:31:29;;;;;;;6.75;1.70;;;;;10.20;98386.00;;;;5034420;28;20414;-60
2023/12/30 03:33:56;;;;;;;5.65;2.00;;;;;10.30;98373.00;;;;5033760;28;20080;-62
2023/12/30 03:36:23;;;;;;;7.50;2.20;;;;;10.20;98381.00;;;;5034133;28;20407;-63
2023/12/30 03:38:52;;;;;;;6.55;2.40;;;;;10.20;98383.00;;;;5034363;28;20069;-62
2023/12/30 03:41:20;;;;;;;5.68;2.20;;;;;10.30;98381.00;;;;5035657;28;20046;-61
2023/12/30 03:43:48;;;;;;;6.60;1.73;;;;;10.30;98386.00;;;;5033859;28;20124;-60
2023/12/30 03:46:14;;;;;;;8.77;2.35;;;;;10.30;98378.00;;;;5017683;28;20038;-61
2023/12/30 03:48:41;;;;;;;7.03;1.75;;;;;10.30;98379.00;;;;5035471;28;20387;-63
2023/12/30 03:51:09;;;;;;;7.43;2.28;;;;;10.30;98373.00;;;;5034160;28;20050;-61
2023/12/30 03:53:35;;;;;;;6.00;2.15;;;;;10.30;98381.00;;;;5033441;28;20136;-64
2023/12/30 03:56:02;;;;;;;7.72;1.92;;;;;10.40;98386.00;;;;5035284;28;20391;-62
2023/12/30 03:58:29;;;;;;;6.43;1.98;;;;;10.40;98397.00;;;;5033777;28;20087;-62
2023/12/30 04:00:56;;;;;;;5.07;1.98;;;;;10.40;98398.00;;;;5035237;28;20045;-64
2023/12/30 04:03:22;;;;;;;6.65;1.90;;;;;10.40;98408.00;;;;5034668;28;20037;-63
2023/12/30 04:05:49;;;;;;;8.38;2.40;;;;;10.40;98403.00;;;;5033314;28;20041;-61
2023/12/30 04:08:15;;;;;;;7.93;2.50;;;;;10.40;98405.00;;;;5034969;28;20136;-61
2023/12/30 04:10:42;;;;;;;8.65;2.42;;;;;10.40;98404.00;;;;5017234;28;20045;-64
2023/12/30 04:13:09;;;;;;;8.40;1.90;;;;;10.40;98411.00;;;;5034881;28;20053;-62
2023/12/30 04:15:37;;;;;;;10.20;2.10;;;;;10.40;98413.00;;;;5033114;28;20085;-63
2023/12/30 04:18:04;;;;;;;9.35;2.15;;;;;10.40;98411.00;;;;5017164;28;20077;-64
2023/12/30 04:20:31;;;;;;;5.32;1.70;;;;;10.40;98406.00;;;;5033438;28;20061;-63
2023/12/30 04:22:57;;;;;;;7.65;2.22;;;;;10.40;98410.00;;;;5034853;28;20073;-64
2023/12/30 04:25:24;;;;;;;9.80;3.13;;;;;10.30;98411.00;;;;5034020;28;20084;-64
2023/12/30 04:27:51;;;;;;;9.27;1.95;;;;;10.30;98404.00;;;;5034514;28;20041;-64
2023/12/30 04:30:17;;;;;;;6.82;1.75;;;;;10.40;98413.00;;;;5034570;28;20041;-64
2023/12/30 04:32:44;;;;;;;7.32;2.22;;;;;10.40;98418.00;;;;5034389;28;20037;-64
2023/12/30 04:35:11;;;;;;;4.93;2.20;;;;;10.40;98410.00;;;;5032668;28;20052;-64
2023/12/30 04:37:38;;;;;;;11.13;3.50;;;;;10.30;98415.00;;;;5034305;28;20044;-64
2023/12/30 04:40:05;;;;;;;10.98;2.42;;;;;10.30;98408.00;;;;5034302;28;20408;-64
2023/12/30 04:42:32;;;;;;;9.88;2.30;;;;;10.40;98409.00;;;;5032982;28;20061;-63
2023/12/30 04:44:58;;;;;;;6.03;2.40;;;;;10.40;98408.00;;;;5032581;28;20041;-64
2023/12/30 04:47:25;;;;;;;10.27;2.50;;;;;10.40;98423.00;;;;5032691;28;20041;-62
2023/12/30 04:49:51;;;;;;;7.60;2.60;;;;;10.40;98426.00;;;;5034471;28;20080;-64
2023/12/30 04:52:18;;;;;;;13.13;2.75;;;;;10.40;98422.00;;;;5032918;28;20465;-64
2023/12/30 04:54:45;;;;;;;10.57;2.10;;;;;10.30;98423.00;;;;5033627;28;20041;-64
2023/12/30 04:57:12;;;;;;;5.25;1.77;;;;;10.30;98415.00;;;;5032847;28;20052;-63
2023/12/30 04:59:38;;;;;;;8.00;1.92;;;;;10.30;98422.00;;;;5032960;28;20048;-64
2023/12/30 05:02:05;;;;;;;5.72;1.88;;;;;10.30;98417.00;;;;5032607;28;20487;-64
2023/12/30 05:04:32;;;;;;;7.82;1.73;;;;;10.30;98416.00;;;;5032086;28;20072;-63
2023/12/30 05:06:59;;;;;;;10.43;2.35;;;;;10.30;98427.00;;;;5032509;28;20069;-64
2023/12/30 05:09:25;;;;;;;9.70;1.80;;;;;10.30;98426.00;;;;5033761;28;20041;-64
2023/12/30 05:11:52;;;;;;;11.32;2.10;;;;;10.30;98425.00;;;;5033889;28;20129;-64
2023/12/30 05:14:19;;;;;;;6.93;1.70;;;;;10.30;98416.00;;;;5031981;28;20561;-64
2023/12/30 05:16:46;;;;;;;8.30;1.80;;;;;10.40;98425.00;;;;5033593;28;20044;-64
2023/12/30 05:19:13;;;;;;;5.78;1.85;;;;;10.30;98427.00;;;;5032464;28;20095;-64
2023/12/30 05:21:40;;;;;;;3.88;1.95;;;;;10.30;98431.00;;;;5033739;28;20042;-62
2023/12/30 05:24:08;;;;;;;8.18;2.25;;;;;10.30;98429.00;;;;5032896;28;20046;-64
2023/12/30 05:26:35;;;;;;;5.97;1.60;;;;;10.30;98429.00;;;;5033506;28;20041;-64
2023/12/30 05:29:02;;;;;;;10.13;2.78;;;;;10.30;98433.00;;;;5033286;28;20455;-64
2023/12/30 05:31:28;;;;;;;5.22;1.52;;;;;10.30;98432.00;;;;5033348;28;20099;-63
2023/12/30 05:33:55;;;;;;;10.48;2.30;;;;;10.30;98431.00;;;;5032363;28;20441;-64
2023/12/30 05:36:22;;;;;;;5.28;1.80;;;;;10.30;98442.00;;;;5033360;28;20045;-64
2023/12/30 05:38:48;;;;;;;6.80;1.90;;;;;10.20;98434.00;;;;5033317;28;20061;-64
2023/12/30 05:41:15;;;;;;;7.35;1.70;;;;;10.20;98429.00;;;;5033475;28;20049;-64
2023/12/30 05:43:43;;;;;;;7.72;2.10;;;;;10.20;98431.00;;;;5031441;28;20095;-64
2023/12/30 05:46:16;;;;;;;9.25;2.08;;;;;10.20;98437.00;;;;5033056;28;20099;-64
2023/12/30 05:48:43;;;;;;;6.38;2.20;;;;;10.20;98437.00;;;;5031969;28;20096;-63
2023/12/30 05:51:11;;;;;;;6.20;1.95;;;;;10.20;98431.00;;;;5033000;28;20445;-64
2023/12/30 05:53:40;;;;;;;6.63;1.98;;;;;10.20;98429.00;;;;5032459;28;20046;-64
2023/12/30 05:56:07;;;;;;;11.02;1.80;;;;;10.20;98440.00;;;;5032869;28;20046;-64
2023/12/30 05:58:34;;;;;;;9.75;2.95;;;;;10.20;98442.00;;;;5031708;28;20083;-63
2023/12/30 06:01:02;;;;;;;11.15;2.55;;;;;10.20;98442.00;;;;5032917;28;20046;-64
2023/12/30 06:03:29;;;;;;;6.93;2.15;;;;;10.20;98447.00;;;;5032224;28;20048;-64
2023/12/30 06:05:55;;;;;;;9.30;2.35;;;;;10.20;98454.00;;;;5032673;28;20053;-63
2023/12/30 06:08:22;;;;;;;8.00;2.25;;;;;10.10;98448.00;;;;5032763;28;20065;-64
2023/12/30 06:10:51;;;;;;;8.55;2.70;;;;;10.20;98447.00;;;;5032630;28;20050;-64
2023/12/30 06:13:18;;;;;;;6.40;2.20;;;;;10.20;98457.00;;;;5032572;28;20519;-64
2023/12/30 06:15:51;;;;;;;7.68;2.15;;;;;10.20;98456.00;;;;5030664;28;20050;-64
2023/12/30 06:18:18;;;;;;;5.20;2.30;;;;;10.20;98465.00;;;;5032650;28;20128;-64
2023/12/30 06:20:46;;;;;;;8.18;2.75;;;;;10.20;98466.00;;;;5032711;28;20648;-63
2023/12/30 06:23:13;;;;;;;7.32;2.28;;;;;10.10;98461.00;;;;5032279;28;20052;-64
2023/12/30 06:25:40;;;;;;;14.75;3.30;;;;;10.10;98465.00;;;;5031808;28;20095;-65
2023/12/30 06:28:07;;;;;;;4.88;1.88;;;;;10.20;98470.00;;;;5032459;28;20046;-64
2023/12/30 06:30:34;;;;;;;6.65;2.17;;;;;10.20;98479.00;;;;5032484;28;20033;-64
2023/12/30 06:33:06;;;;;;;4.97;2.40;;;;;10.20;98482.00;;;;5032459;28;20037;-63
2023/12/30 06:35:34;;;;;;;5.57;2.00;;;;;10.20;98471.00;;;;5031854;28;20068;-61
2023/12/30 06:38:01;;;;;;;7.30;2.03;;;;;10.20;98483.00;;;;5032474;28;20041;-62
2023/12/30 06:40:28;;;;;;;6.18;2.00;;;;;10.20;98486.00;;;;5032333;28;20124;-61
2023/12/30 06:42:55;;;;;;;5.88;2.13;;;;;10.20;98489.00;;;;5032456;28;20049;-63
2023/12/30 06:45:21;;;;;;;6.50;2.25;;;;;10.20;98482.00;;;;5030764;28;20041;-62
2023/12/30 06:47:48;;;;;;;7.18;2.20;;;;;10.20;98478.00;;;;5030761;28;20037;-60
2023/12/30 06:50:15;;;;;;;5.32;2.25;;;;;10.20;98488.00;;;;5032085;28;20124;-61
2023/12/30 06:52:46;;;;;;;4.47;2.10;;;;;10.20;98485.00;;;;5032453;28;20055;-62
2023/12/30 06:55:14;;;;;;;7.53;2.33;;;;;10.30;98482.00;;;;5031532;28;20107;-64
2023/12/30 06:57:51;;;;;;;8.32;2.25;;;;;10.30;98495.00;;;;5032365;28;20061;-64
2023/12/30 07:00:19;;;;;;;7.00;2.45;;;;;10.30;98483.00;;;;5031140;28;20557;-64
2023/12/30 07:02:46;;;;;;;5.57;2.10;;;;;10.30;98489.00;;;;5032186;28;20124;-64
2023/12/30 07:05:13;;;;;;;5.65;2.40;;;;;10.30;98495.00;;;;5031473;28;20073;-65
2023/12/30 07:07:39;;;;;;;5.13;1.90;;;;;10.30;98502.00;;;;5031883;28;20475;-62
2023/12/30 07:10:07;;;;;;;8.20;2.58;;;;;10.30;98503.00;;;;5031012;28;20115;-65
2023/12/30 07:12:33;;;;;;;7.10;2.25;;;;;10.30;98510.00;;;;5033358;28;20236;-64
2023/12/30 07:15:00;;;;;;;4.78;2.25;;;;;10.30;98506.00;;;;5032974;28;20045;-65
2023/12/30 07:17:27;;;;;;;5.45;2.47;;;;;10.30;98508.00;;;;5030494;28;20502;-65
2023/12/30 07:19:53;;;;;;;9.00;2.42;;;;;10.30;98514.00;;;;5031919;28;20053;-65
2023/12/30 07:22:20;;;;;;;6.70;2.13;;;;;10.30;98513.00;;;;5030642;28;20439;-64
2023/12/30 07:24:47;;;;;;;4.75;2.60;;;;;10.30;98512.00;;;;5031377;28;20056;-64
2023/12/30 07:27:14;;;;;;;7.50;2.20;;;;;10.30;98518.00;;;;5031308;28;20046;-65
2023/12/30 07:29:41;;;;;;;4.72;2.22;;;;;10.30;98504.00;;;;5031672;28;20045;-65
2023/12/30 07:32:08;;;;;;;5.07;2.08;;;;;10.30;98504.00;;;;5014076;28;20092;-65
2023/12/30 07:34:34;;;;;;;6.32;2.10;;;;;10.30;98507.00;;;;5031018;28;20127;-65
2023/12/30 07:37:01;;;;;;;8.57;2.80;;;;;10.40;98509.00;;;;5031608;28;20045;-65
2023/12/30 07:39:28;;;;;;;8.85;2.92;;;;;10.40;98507.00;;;;5030452;28;20056;-63
2023/12/30 07:41:55;;;;;;;9.20;1.90;;;;;10.40;98519.00;;;;5031609;28;20151;-64
2023/12/30 07:44:21;;;;;;;6.50;2.50;;;;;10.40;98519.00;;;;5031565;28;20394;-67
2023/12/30 07:46:48;;;;;;;5.55;2.67;;;;;10.40;98510.00;;;;5031661;28;20045;-65
2023/12/30 07:49:17;;;;;;;5.53;1.98;;;;;10.30;98521.00;;;;5031822;28;20072;-65
2023/12/30 07:51:44;;;;;;;6.20;1.88;;;;;10.40;98521.00;;;;5031572;28;20041;-65
2023/12/30 07:54:12;;;;;;;6.78;2.25;;;;;10.40;98524.00;;;;5029751;28;20048;-65
2023/12/30 07:56:39;;;;;;;7.47;2.75;;;;;10.40;98524.00;;;;5033301;28;20487;-65
2023/12/30 07:59:05;;;;;;;7.10;2.70;;;;;10.40;98524.00;;;;5035174;28;20045;-65
2023/12/30 08:01:32;;;;;;;4.20;1.70;;;;;10.40;98522.00;;;;5035197;28;20045;-65
2023/12/30 08:03:59;;;;;;;4.85;2.33;;;;;10.50;98528.00;;;;5034574;28;20037;-66
2023/12/30 08:06:26;;;;;;;10.02;2.95;;;;;10.50;98527.00;;;;5035474;28;20454;-65
2023/12/30 08:08:53;;;;;;;5.95;2.28;;;;;10.50;98522.00;;;;5035691;28;20586;-65
2023/12/30 08:11:19;;;;;;;5.43;2.25;;;;;10.50;98521.00;;;;5036954;28;20041;-63
2023/12/30 08:13:46;;;;;;;5.88;2.15;;;;;10.60;98539.00;;;;5017557;28;20155;-64
2023/12/30 08:16:12;;;;;;;9.90;2.25;;;;;10.60;98526.00;;;;5035765;28;20045;-65
2023/12/30 08:18:39;;;;;;;4.90;2.33;;;;;10.70;98538.00;;;;5034720;28;20041;-63
2023/12/30 08:21:06;;;;;;;7.40;3.00;;;;;10.70;98526.00;;;;5033563;28;20037;-64
2023/12/30 08:23:32;;;;;;;6.13;2.35;;;;;10.70;98521.00;;;;5034273;28;20041;-65
2023/12/30 08:25:59;;;;;;;5.05;2.17;;;;;10.70;98526.00;;;;5034783;28;20379;-65
2023/12/30 08:28:26;;;;;;;4.50;2.58;;;;;10.70;98520.00;;;;5035105;28;20053;-64
2023/12/30 08:30:54;;;;;;;9.18;3.03;;;;;10.70;98524.00;;;;5034922;28;20049;-65
2023/12/30 08:33:21;;;;;;;8.40;3.08;;;;;10.70;98521.00;;;;5033270;28;20041;-66
2023/12/30 08:35:49;;;;;;;6.10;2.47;;;;;10.60;98520.00;;;;5034504;28;20042;-64
2023/12/30 08:38:18;;;;;;;6.22;2.10;;;;;10.60;98534.00;;;;5033215;28;20038;-65
2023/12/30 08:40:45;;;;;;;4.85;2.72;;;;;10.60;98537.00;;;;5033125;28;20064;-65
2023/12/30 08:43:12;;;;;;;9.55;2.97;;;;;10.60;98517.00;;;;5034654;28;20117;-65
2023/12/30 08:45:39;;;;;;;10.38;2.47;;;;;10.70;98528.00;;;;5032785;28;20449;-65
2023/12/30 08:48:06;;;;;;;5.97;2.65;;;;;10.70;98526.00;;;;5034362;28;20071;-65
2023/12/30 08:50:33;;;;;;;7.00;2.47;;;;;10.80;98528.00;;;;5034316;28;20060;-65
2023/12/30 08:52:59;;;;;;;5.68;2.25;;;;;10.90;98535.00;;;;5034282;28;20076;-65
2023/12/30 08:55:26;;;;;;;6.53;2.80;;;;;10.80;98540.00;;;;5033710;28;20049;-63
2023/12/30 08:57:53;;;;;;;8.85;2.80;;;;;10.90;98531.00;;;;5033903;28;20107;-63
2023/12/30 09:00:20;;;;;;;5.55;2.75;;;;;10.90;98539.00;;;;5034126;28;20049;-64
2023/12/30 09:02:47;;;;;;;6.47;2.55;;;;;11.00;98530.00;;;;5034076;28;20506;-62
2023/12/30 09:05:20;;;;;;;6.60;2.35;;;;;11.00;98529.00;;;;5033327;28;20052;-64
2023/12/30 09:07:50;;;;;;;7.43;2.55;;;;;10.90;98525.00;;;;5032781;28;20069;-64
2023/12/30 09:10:17;;;;;;;4.43;2.67;;;;;11.00;98518.00;;;;5033915;28;20045;-64
2023/12/30 09:12:45;;;;;;;5.65;2.67;;;;;10.90;98538.00;;;;5034310;28;20049;-65
2023/12/30 09:15:11;;;;;;;5.75;2.60;;;;;10.90;98538.00;;;;5033647;28;20125;-63
2023/12/30 09:17:38;;;;;;;11.35;2.85;;;;;10.90;98548.00;;;;5034174;28;20473;-65
2023/12/30 09:20:06;;;;;;;7.10;2.85;;;;;11.00;98545.00;;;;5032478;28;20144;-65
2023/12/30 09:22:32;;;;;;;9.13;2.60;;;;;10.90;98549.00;;;;5033740;28;20494;-65
2023/12/30 09:25:00;;;;;;;6.78;2.92;;;;;11.00;98546.00;;;;5033516;28;20049;-63
2023/12/30 09:27:26;;;;;;;7.38;2.65;;;;;11.00;98550.00;;;;5033856;28;20099;-64
2023/12/30 09:29:53;;;;;;;6.43;2.53;;;;;11.10;98552.00;;;;5033810;28;20095;-65
2023/12/30 09:32:20;;;;;;;7.43;2.80;;;;;11.20;98554.00;;;;5033567;28;20120;-64
2023/12/30 09:34:46;;;;;;;4.65;2.65;;;;;11.20;98555.00;;;;5031870;28;20533;-65
2023/12/30 09:37:14;;;;;;;8.25;2.63;;;;;11.20;98562.00;;;;5033584;28;20037;-64
2023/12/30 09:39:42;;;;;;;9.90;2.70;;;;;11.20;98559.00;;;;5033748;28;20052;-65
2023/12/30 09:42:09;;;;;;;5.30;2.13;;;;;11.10;98568.00;;;;5033425;28;20045;-65
2023/12/30 09:44:37;;;;;;;5.75;2.60;;;;;11.10;98567.00;;;;5032781;28;20049;-65
2023/12/30 09:47:07;;;;;;;6.07;2.00;;;;;11.10;98564.00;;;;5033307;28;20045;-65
2023/12/30 09:49:35;;;;;;;6.75;2.38;;;;;11.10;98577.00;;;;5033514;28;20044;-63
2023/12/30 09:52:06;;;;;;;3.85;1.83;;;;;11.10;98575.00;;;;5033214;28;20041;-63
2023/12/30 09:54:33;;;;;;;5.53;2.25;;;;;11.10;98573.00;;;;5032570;28;20096;-65
2023/12/30 09:57:14;;;;;;;5.88;1.88;;;;;11.00;98572.00;;;;5033085;28;20046;-64
2023/12/30 09:59:41;;;;;;;6.43;2.35;;;;;11.00;98567.00;;;;5032973;28;20069;-64
2023/12/30 10:02:09;;;;;;;7.70;2.28;;;;;11.00;98577.00;;;;5032006;28;20469;-65
2023/12/30 10:04:37;;;;;;;7.53;2.42;;;;;11.00;98572.00;;;;5032374;28;20502;-64
2023/12/30 10:07:04;;;;;;;5.93;2.22;;;;;11.00;98580.00;;;;5032700;28;20088;-64
2023/12/30 10:09:32;;;;;;;11.48;2.67;;;;;11.00;98583.00;;;;5032824;28;20053;-65
2023/12/30 10:11:58;;;;;;;5.70;1.90;;;;;11.10;98581.00;;;;5032849;28;20045;-65
2023/12/30 10:14:25;;;;;;;5.50;1.98;;;;;11.10;98576.00;;;;5031993;28;20047;-64
2023/12/30 10:16:52;;;;;;;5.18;2.22;;;;;11.10;98577.00;;;;5032695;28;20386;-64
2023/12/30 10:19:18;;;;;;;5.43;2.17;;;;;11.20;98573.00;;;;5032255;28;20052;-65
2023/12/30 10:21:45;;;;;;;7.55;2.83;;;;;11.20;98567.00;;;;5031401;28;20045;-64
2023/12/30 10:24:11;;;;;;;4.30;1.80;;;;;11.20;98560.00;;;;5031016;28;20045;-64
2023/12/30 10:26:39;;;;;;;4.82;1.98;;;;;11.10;98561.00;;;;5033032;28;20495;-64
2023/12/30 10:29:06;;;;;;;7.03;2.28;;;;;11.20;98565.00;;;;5030944;28;20056;-62
2023/12/30 10:31:34;;;;;;;4.40;1.92;;;;;11.20;98560.00;;;;5032241;28;20052;-62
2023/12/30 10:34:01;;;;;;;3.83;2.08;;;;;11.20;98559.00;;;;5031790;28;20056;-62
2023/12/30 10:36:29;;;;;;;5.32;1.48;;;;;11.20;98568.00;;;;5032657;28;20541;-62
2023/12/30 10:38:59;;;;;;;5.03;1.90;;;;;11.20;98558.00;;;;5032522;28;20046;-64
2023/12/30 10:41:26;;;;;;;11.40;2.13;;;;;11.20;98557.00;;;;5032401;28;20045;-61
2023/12/30 10:43:53;;;;;;;7.13;2.22;;;;;11.30;98566.00;;;;5032119;28;20489;-61
2023/12/30 10:46:24;;;;;;;4.35;1.92;;;;;11.30;98562.00;;;;5032493;28;20041;-64
2023/12/30 10:48:56;;;;;;;6.97;2.08;;;;;11.20;98569.00;;;;5032696;28;20045;-61
2023/12/30 10:51:25;;;;;;;10.90;2.67;;;;;11.20;98570.00;;;;5032411;28;20068;-61
2023/12/30 10:54:06;;;;;;;7.15;1.95;;;;;11.30;98574.00;;;;5030051;28;20549;-61
2023/12/30 10:56:45;;;;;;;5.30;2.13;;;;;11.20;98570.00;;;;5032114;28;20138;-62
2023/12/30 10:59:12;;;;;;;7.57;2.08;;;;;11.10;98564.00;;;;5032515;28;20515;-62
2023/12/30 11:01:40;;;;;;;7.40;2.40;;;;;11.10;98572.00;;;;5030662;28;20057;-62
2023/12/30 11:04:11;;;;;;;8.75;1.98;;;;;11.20;98573.00;;;;5030171;28;20490;-63
2023/12/30 11:06:54;;;;;;;5.72;1.65;;;;;11.20;98567.00;;;;5032063;28;20067;-63
2023/12/30 11:09:28;;;;;;;9.18;2.80;;;;;11.20;98575.00;;;;5032298;28;20193;-62
2023/12/30 11:11:59;;;;;;;6.78;2.88;;;;;11.20;98567.00;;;;5032315;28;20095;-63
2023/12/30 11:14:26;;;;;;;10.25;2.35;;;;;11.20;98567.00;;;;5030455;28;20076;-63
2023/12/30 11:16:55;;;;;;;6.30;2.47;;;;;11.20;98574.00;;;;5031923;28;20044;-63
2023/12/30 11:19:30;;;;;;;8.23;2.50;;;;;11.20;98575.00;;;;5030928;28;20053;-62
2023/12/30 11:22:02;;;;;;;44.50;18.33;;;;;11.20;98564.00;;;;5032068;28;20045;-62
2023/12/30 11:24:29;;;;;;;5.25;2.90;;;;;11.20;98570.00;;;;5031431;28;20060;-62
2023/12/30 11:26:56;;;;;;;6.53;2.63;;;;;11.20;98565.00;;;;5030875;28;20171;-62
2023/12/30 11:29:25;;;;;;;8.55;3.80;;;;;11.20;98566.00;;;;5031959;28;20358;-62
2023/12/30 11:31:56;;;;;;;8.55;4.68;;;;;11.20;98559.00;;;;5034359;28;20076;-62
2023/12/30 11:34:26;;;;;;;15.75;6.00;;;;;11.20;98549.00;;;;5034632;28;20095;-63
2023/12/30 11:36:57;;;;;;;10.57;3.63;;;;;11.20;98558.00;;;;5035846;28;20060;-62
2023/12/30 11:39:27;;;;;;;11.88;5.15;;;;;11.20;98548.00;;;;5037562;28;20055;-63
2023/12/30 11:41:57;;;;;;;10.65;4.00;;;;;11.20;98550.00;;;;5037049;28;20045;-62
2023/12/30 11:44:24;;;;;;;8.05;2.60;;;;;11.20;98542.00;;;;5036092;28;20105;-63
2023/12/30 11:46:50;;;;;;;12.10;2.38;;;;;11.30;98531.00;;;;5036855;28;20041;-62
2023/12/30 11:49:21;;;;;;;6.32;2.40;;;;;11.40;98529.00;;;;5040571;28;20092;-63
2023/12/30 11:51:49;;;;;;;7.50;2.95;;;;;11.40;98530.00;;;;5039778;28;20077;-63
2023/12/30 11:54:15;;;;;;;8.98;4.15;;;;;11.50;98531.00;;;;5037722;28;20156;-63
2023/12/30 11:56:42;;;;;;;10.45;3.80;;;;;11.50;98521.00;;;;5039036;28;20132;-61
2023/12/30 11:59:09;;;;;;;15.63;5.25;;;;;11.70;98516.00;;;;5044042;28;20071;-62
2023/12/30 12:01:36;;;;;;;8.50;3.80;;;;;11.70;98508.00;;;;5041902;28;20052;-64
2023/12/30 12:04:03;;;;;;;7.78;2.25;;;;;11.80;98498.00;;;;5041089;28;20518;-63
2023/12/30 12:06:31;;;;;;;15.75;7.63;;;;;11.90;98501.00;;;;5042336;28;20100;-63
2023/12/30 12:09:00;;;;;;;11.85;4.78;;;;;11.90;98490.00;;;;5043479;28;20057;-63
2023/12/30 12:11:27;;;;;;;10.57;3.20;;;;;12.00;98489.00;;;;5044117;28;20060;-61
2023/12/30 12:14:01;;;;;;;13.32;4.72;;;;;12.10;98487.00;;;;5039277;28;20054;-64
2023/12/30 12:16:31;;;;;;;6.63;3.03;;;;;12.20;98491.00;;;;5038676;28;20045;-61